Time;durP1;ratioP1;P1;durP2;ratioP2;P2;SDS_P1;SDS_P2;PMS_P1;PMS_P2;Temp;Humidity;BMP_temperature;BMP_pressure;BME280_temperature;BME280_humidity;BME280_pressure;Samples;Min_cycle;Max_cycle;Signal;HPM_P1;HPM_P2
2023/03/06 00:00:19;;;;;;;24.02;10.68;;;;;;;3.46;100.00;100576.91;5065204;28;20492;-80
2023/03/06 00:02:44;;;;;;;19.73;10.80;;;;;;;3.42;100.00;100577.16;5074024;28;20130;-80
2023/03/06 00:05:11;;;;;;;21.92;10.77;;;;;;;3.41;100.00;100583.50;5076108;28;20161;-80
2023/03/06 00:07:37;;;;;;;28.48;11.05;;;;;;;3.41;100.00;100573.59;5075917;28;20558;-80
2023/03/06 00:10:03;;;;;;;19.40;10.90;;;;;;;3.43;100.00;100579.78;5041675;28;20130;-80
2023/03/06 00:12:28;;;;;;;23.02;11.15;;;;;;;3.36;100.00;100572.97;5074045;28;20494;-80
2023/03/06 00:14:54;;;;;;;26.98;11.32;;;;;;;3.37;100.00;100573.81;5068680;28;20047;-80
2023/03/06 00:17:19;;;;;;;22.85;11.95;;;;;;;3.25;100.00;100567.25;5058268;28;20033;-80
2023/03/06 00:19:45;;;;;;;23.63;10.85;;;;;;;3.31;100.00;100561.47;5075477;28;20044;-80
2023/03/06 00:22:14;;;;;;;25.42;11.15;;;;;;;3.19;100.00;100564.88;5059592;28;20510;-80
2023/03/06 00:24:41;;;;;;;21.30;10.48;;;;;;;3.05;100.00;100555.66;5075099;28;20032;-79
2023/03/06 00:27:07;;;;;;;26.17;11.00;;;;;;;2.97;100.00;100551.59;5075980;28;20040;-80
2023/03/06 00:29:33;;;;;;;23.90;12.02;;;;;;;3.07;100.00;100556.44;5072379;28;20036;-80
2023/03/06 00:31:58;;;;;;;30.30;12.38;;;;;;;2.90;100.00;100542.91;5091605;28;20111;-81
2023/03/06 00:34:24;;;;;;;27.63;11.85;;;;;;;2.92;100.00;100554.56;5089835;28;20040;-80
2023/03/06 00:36:50;;;;;;;24.30;11.05;;;;;;;2.85;100.00;100543.16;5075574;28;20067;-79
2023/03/06 00:39:16;;;;;;;29.25;12.13;;;;;;;2.83;100.00;100542.38;5058903;28;20479;-80
2023/03/06 00:41:41;;;;;;;28.75;11.60;;;;;;;2.74;100.00;100532.91;5062345;28;20046;-79
2023/03/06 00:44:07;;;;;;;25.00;12.75;;;;;;;2.80;100.00;100533.56;5096004;28;20032;-80
2023/03/06 00:46:32;;;;;;;25.55;11.48;;;;;;;2.74;100.00;100532.91;5058462;28;20033;-79
2023/03/06 00:48:57;;;;;;;31.00;13.05;;;;;;;2.85;100.00;100534.19;5086286;28;20036;-79
2023/03/06 00:51:23;;;;;;;30.08;13.40;;;;;;;2.83;100.00;100528.84;5079185;28;20036;-79
2023/03/06 00:53:49;;;;;;;31.08;13.52;;;;;;;2.92;100.00;100525.69;5045062;28;20040;-80
2023/03/06 00:56:14;;;;;;;30.63;13.88;;;;;;;2.94;100.00;100529.16;5061872;28;20054;-80
2023/03/06 00:58:39;;;;;;;35.75;14.85;;;;;;;2.92;100.00;100533.78;5065450;28;20063;-80
2023/03/06 01:01:05;;;;;;;30.00;14.13;;;;;;;3.00;100.00;100524.38;5075638;28;20115;-80
2023/03/06 01:03:30;;;;;;;38.28;14.85;;;;;;;2.94;100.00;100518.34;5062580;28;20032;-80
2023/03/06 01:05:56;;;;;;;30.73;14.52;;;;;;;2.91;100.00;100514.94;5062447;28;20115;-80
2023/03/06 01:08:22;;;;;;;35.88;15.00;;;;;;;2.87;100.00;100505.22;5078227;28;20028;-80
2023/03/06 01:10:47;;;;;;;35.30;16.00;;;;;;;2.80;100.00;100503.81;5095939;28;20062;-79
2023/03/06 01:13:13;;;;;;;35.97;16.17;;;;;;;2.85;100.00;100507.16;5076933;28;20119;-79
2023/03/06 01:15:38;;;;;;;36.20;15.73;;;;;;;2.72;100.00;100506.91;5078221;28;20042;-80
2023/03/06 01:18:04;;;;;;;32.95;15.85;;;;;;;2.70;100.00;100500.72;5097090;28;20040;-80
2023/03/06 01:20:29;;;;;;;36.72;16.80;;;;;;;2.65;100.00;100505.50;5097234;28;20028;-80
2023/03/06 01:22:55;;;;;;;38.25;17.35;;;;;;;2.74;100.00;100500.47;5063054;28;20032;-80
2023/03/06 01:25:25;;;;;;;37.85;16.98;;;;;;;2.78;100.00;100506.59;5079410;28;20102;-80
2023/03/06 01:27:51;;;;;;;43.67;19.23;;;;;;;2.88;100.00;100493.47;5079876;28;20024;-80
2023/03/06 01:30:17;;;;;;;36.22;17.33;;;;;;;2.87;100.00;100495.31;5062655;28;20047;-80
2023/03/06 01:32:43;;;;;;;35.85;18.20;;;;;;;3.00;100.00;100498.25;5079901;28;20479;-80
2023/03/06 01:35:09;;;;;;;40.78;19.42;;;;;;;2.83;100.00;100490.13;5063111;28;20043;-80
2023/03/06 01:37:36;;;;;;;39.47;19.35;;;;;;;2.93;100.00;100492.25;5076929;28;20134;-80
2023/03/06 01:40:01;;;;;;;40.85;17.92;;;;;;;2.94;100.00;100496.72;5076677;28;20062;-81
2023/03/06 01:42:27;;;;;;;40.40;18.17;;;;;;;2.89;100.00;100487.13;5096818;28;20032;-80
2023/03/06 01:45:05;;;;;;;42.38;19.35;;;;;;;2.88;100.00;100485.34;5062141;28;20074;-80
2023/03/06 01:47:31;;;;;;;42.65;18.30;;;;;;;2.89;100.00;100479.00;5077285;28;20119;-80
2023/03/06 01:50:00;;;;;;;41.80;19.73;;;;;;;3.06;100.00;100495.19;5060925;28;20078;-81
2023/03/06 01:52:48;;;;;;;41.88;17.75;;;;;;;2.97;100.00;100490.28;5079670;28;20033;-80
2023/03/06 01:55:20;;;;;;;39.67;18.45;;;;;;;3.06;100.00;100476.25;5046079;28;21594;-81
2023/03/06 01:57:51;;;;;;;46.10;18.90;;;;;;;2.75;100.00;100474.31;5095151;28;20109;-79
2023/03/06 02:00:22;;;;;;;45.45;18.73;;;;;;;2.76;100.00;100467.97;5086822;28;20102;-80
2023/03/06 02:03:06;;;;;;;39.40;18.05;;;;;;;2.94;100.00;100466.09;5111272;28;20391;-80
2023/03/06 02:05:32;;;;;;;38.15;16.45;;;;;;;2.87;100.00;100470.97;5097644;28;20024;-79
2023/03/06 02:08:01;;;;;;;37.50;17.38;;;;;;;2.79;100.00;100473.22;5094378;28;20093;-80
2023/03/06 02:10:26;;;;;;;35.20;18.02;;;;;;;2.80;100.00;100474.94;5078470;28;20027;-80
2023/03/06 02:12:52;;;;;;;46.17;18.83;;;;;;;2.84;100.00;100468.44;5061984;28;20065;-80
2023/03/06 02:15:22;;;;;;;35.22;17.40;;;;;;;2.83;100.00;100472.06;5073458;28;20032;-80
2023/03/06 02:17:49;;;;;;;35.47;16.88;;;;;;;2.85;100.00;100469.28;5111262;28;20360;-80
2023/03/06 02:20:34;;;;;;;40.00;16.05;;;;;;;2.86;100.00;100471.06;5096257;28;20027;-80
2023/03/06 02:23:17;;;;;;;36.97;15.23;;;;;;;2.81;100.00;100462.31;5098602;28;20032;-80
2023/03/06 02:25:48;;;;;;;24.52;12.82;;;;;;;2.79;100.00;100464.22;5116956;28;20032;-80
2023/03/06 02:28:17;;;;;;;34.80;14.35;;;;;;;2.78;100.00;100457.06;5096721;28;20036;-80
2023/03/06 02:30:45;;;;;;;30.40;12.80;;;;;;;2.84;100.00;100454.03;5116369;28;20023;-79
2023/03/06 02:33:13;;;;;;;25.85;12.85;;;;;;;2.82;100.00;100447.81;5090949;28;20460;-80
2023/03/06 02:35:42;;;;;;;27.27;11.98;;;;;;;2.78;100.00;100447.13;5077499;28;20093;-81
2023/03/06 02:38:15;;;;;;;27.98;12.32;;;;;;;2.78;100.00;100440.84;5089948;28;20054;-81
2023/03/06 02:40:46;;;;;;;24.83;12.05;;;;;;;2.76;100.00;100451.75;5127518;27;20470;-80
2023/03/06 02:43:15;;;;;;;22.42;10.98;;;;;;;2.66;100.00;100432.44;5109475;27;20461;-80
2023/03/06 02:45:47;;;;;;;23.05;12.13;;;;;;;2.70;100.00;100425.03;5116983;27;20024;-80
2023/03/06 02:48:15;;;;;;;25.23;12.52;;;;;;;2.70;100.00;100433.16;5115574;28;20191;-80
2023/03/06 02:50:41;;;;;;;34.22;14.32;;;;;;;2.63;100.00;100424.50;5095902;28;20531;-80
2023/03/06 02:53:08;;;;;;;29.13;12.55;;;;;;;2.67;100.00;100423.38;5094935;28;20475;-80
2023/03/06 02:55:34;;;;;;;32.15;11.82;;;;;;;2.61;100.00;100425.50;5093701;28;20135;-80
2023/03/06 02:58:00;;;;;;;30.48;10.90;;;;;;;2.60;100.00;100421.94;5114120;28;20032;-79
2023/03/06 03:00:30;;;;;;;27.33;12.85;;;;;;;2.65;100.00;100419.88;5072379;28;20050;-80
2023/03/06 03:02:55;;;;;;;26.58;11.65;;;;;;;2.62;100.00;100417.31;5077184;28;20042;-80
2023/03/06 03:05:21;;;;;;;25.63;12.25;;;;;;;2.50;100.00;100412.59;5077667;28;20539;-80
2023/03/06 03:07:46;;;;;;;24.98;11.77;;;;;;;2.49;100.00;100413.53;5076527;28;20038;-79
2023/03/06 03:10:12;;;;;;;29.90;12.73;;;;;;;2.47;100.00;100415.44;5059566;28;20044;-80
2023/03/06 03:12:39;;;;;;;25.73;13.07;;;;;;;2.44;100.00;100421.00;5073450;28;20056;-80
2023/03/06 03:15:06;;;;;;;30.02;14.02;;;;;;;2.36;100.00;100416.00;5095108;28;20490;-80
2023/03/06 03:17:34;;;;;;;32.13;13.40;;;;;;;2.31;100.00;100421.66;5060773;28;20055;-80
2023/03/06 03:20:00;;;;;;;29.85;13.60;;;;;;;2.20;100.00;100415.94;5044393;28;20115;-80
2023/03/06 03:22:25;;;;;;;41.97;15.35;;;;;;;2.20;100.00;100408.72;5060042;28;20035;-80
2023/03/06 03:24:51;;;;;;;32.83;14.20;;;;;;;2.18;100.00;100401.63;5095675;28;20483;-80
2023/03/06 03:27:16;;;;;;;35.92;16.52;;;;;;;2.13;100.00;100409.09;5076166;28;20036;-80
2023/03/06 03:29:42;;;;;;;38.85;17.13;;;;;;;2.11;100.00;100409.16;5060141;28;20036;-79
2023/03/06 03:32:08;;;;;;;44.88;15.52;;;;;;;2.04;100.00;100409.59;5076926;28;20418;-80
2023/03/06 03:34:34;;;;;;;43.35;18.15;;;;;;;2.09;100.00;100411.09;5075883;28;20036;-80
2023/03/06 03:36:59;;;;;;;45.47;18.58;;;;;;;1.98;100.00;100402.66;5058386;28;20066;-80
2023/03/06 03:39:24;;;;;;;45.22;17.38;;;;;;;1.82;100.00;100398.03;5037440;28;20039;-80
2023/03/06 03:41:51;;;;;;;43.95;17.45;;;;;;;1.81;100.00;100398.13;5051996;28;20491;-80
2023/03/06 03:44:16;;;;;;;50.53;18.80;;;;;;;1.66;100.00;100388.97;5060810;28;20059;-80
2023/03/06 03:46:42;;;;;;;46.90;19.23;;;;;;;1.68;100.00;100391.59;5090910;28;20044;-79
2023/03/06 03:49:07;;;;;;;45.03;19.05;;;;;;;1.54;100.00;100385.06;5068018;28;20067;-79
2023/03/06 03:51:33;;;;;;;49.45;17.80;;;;;;;1.62;100.00;100384.66;5059965;28;20048;-80
2023/03/06 03:53:58;;;;;;;45.63;18.38;;;;;;;1.54;100.00;100385.06;5054529;28;20395;-80
2023/03/06 03:56:24;;;;;;;44.95;17.92;;;;;;;1.54;100.00;100376.97;5072406;28;20166;-79
2023/03/06 03:58:50;;;;;;;47.53;18.27;;;;;;;1.61;100.00;100381.09;5097027;28;20124;-79
2023/03/06 04:01:16;;;;;;;53.58;19.60;;;;;;;1.60;100.00;100373.94;5023390;28;20503;-78
2023/03/06 04:03:41;;;;;;;47.92;19.77;;;;;;;1.56;100.00;100364.25;5067621;28;20035;-80
2023/03/06 04:06:07;;;;;;;48.97;18.60;;;;;;;1.57;100.00;100363.28;5060553;28;20033;-79
2023/03/06 04:08:32;;;;;;;47.67;18.73;;;;;;;1.65;100.00;100360.22;5068924;28;20040;-80
2023/03/06 04:10:58;;;;;;;50.83;19.25;;;;;;;1.61;100.00;100355.94;5070355;28;20101;-80
2023/03/06 04:13:23;;;;;;;42.85;18.40;;;;;;;1.70;100.00;100355.47;5060127;28;20089;-80
2023/03/06 04:15:51;;;;;;;46.88;19.45;;;;;;;1.75;100.00;100364.19;5076687;28;20119;-80
2023/03/06 04:18:17;;;;;;;46.38;18.00;;;;;;;1.75;100.00;100353.41;5076228;28;20028;-81
2023/03/06 04:20:44;;;;;;;48.95;18.27;;;;;;;1.82;100.00;100351.25;5059188;28;20039;-80
2023/03/06 04:23:10;;;;;;;44.80;18.27;;;;;;;1.83;100.00;100347.63;5090446;28;20040;-81
2023/03/06 04:25:37;;;;;;;54.33;20.55;;;;;;;1.84;100.00;100339.44;5059086;28;20329;-81
2023/03/06 04:28:03;;;;;;;46.92;19.02;;;;;;;1.94;100.00;100353.34;5087743;28;20025;-81
2023/03/06 04:30:29;;;;;;;53.20;18.73;;;;;;;1.94;100.00;100341.69;5083311;28;20039;-79
2023/03/06 04:32:54;;;;;;;52.67;19.00;;;;;;;1.92;100.00;100339.06;5057945;28;20403;-81
2023/03/06 04:35:20;;;;;;;49.60;18.77;;;;;;;1.89;100.00;100341.91;5058943;28;20032;-81
2023/03/06 04:37:45;;;;;;;52.30;19.88;;;;;;;1.89;100.00;100339.22;5057567;28;20534;-78
2023/03/06 04:40:22;;;;;;;61.55;21.38;;;;;;;1.80;100.00;100334.28;5075822;28;20536;-80
2023/03/06 04:42:48;;;;;;;56.80;20.23;;;;;;;1.86;100.00;100330.41;5058151;28;20071;-81
2023/03/06 04:45:14;;;;;;;52.63;20.35;;;;;;;1.86;100.00;100330.41;5088353;28;20487;-81
2023/03/06 04:47:40;;;;;;;50.00;19.92;;;;;;;1.82;100.00;100326.97;5084059;28;20051;-79
2023/03/06 04:50:07;;;;;;;59.63;22.70;;;;;;;1.95;100.00;100330.81;5057757;28;20040;-78
2023/03/06 04:52:33;;;;;;;60.05;20.15;;;;;;;1.89;100.00;100328.41;5091509;28;20511;-79
2023/03/06 04:54:58;;;;;;;66.53;20.88;;;;;;;1.94;100.00;100334.44;5085907;28;20058;-79
2023/03/06 04:57:24;;;;;;;55.42;20.55;;;;;;;1.91;100.00;100326.50;5057100;28;20040;-78
2023/03/06 04:59:50;;;;;;;55.75;20.85;;;;;;;1.96;100.00;100329.84;5085796;28;20052;-78
2023/03/06 05:02:19;;;;;;;58.78;20.85;;;;;;;1.91;100.00;100329.22;5092602;28;20032;-78
2023/03/06 05:04:44;;;;;;;59.08;21.17;;;;;;;1.93;100.00;100326.44;5067045;28;20036;-78
2023/03/06 05:07:10;;;;;;;68.88;21.13;;;;;;;2.00;100.00;100326.03;5081109;28;20040;-77
2023/03/06 05:09:35;;;;;;;70.97;22.10;;;;;;;1.95;100.00;100328.09;5090616;28;20036;-78
2023/03/06 05:12:02;;;;;;;59.03;21.20;;;;;;;1.92;100.00;100314.78;5089695;28;20119;-79
2023/03/06 05:14:29;;;;;;;55.38;20.75;;;;;;;1.98;100.00;100314.47;5063460;28;20036;-79
2023/03/06 05:16:55;;;;;;;62.15;20.48;;;;;;;1.83;100.00;100317.94;5066734;28;20032;-79
2023/03/06 05:19:20;;;;;;;73.53;24.75;;;;;;;1.87;100.00;100319.53;5071808;28;20037;-79
2023/03/06 05:21:46;;;;;;;64.15;21.55;;;;;;;1.78;100.00;100310.06;5080559;28;20040;-79
2023/03/06 05:24:11;;;;;;;64.35;21.83;;;;;;;1.79;100.00;100319.91;5077728;28;20055;-79
2023/03/06 05:26:37;;;;;;;59.72;21.95;;;;;;;1.86;100.00;100312.38;5094559;28;20449;-80
2023/03/06 05:29:02;;;;;;;66.65;23.33;;;;;;;1.86;100.00;100320.47;5079113;28;20067;-79
2023/03/06 05:31:28;;;;;;;57.83;20.65;;;;;;;1.76;100.00;100311.13;5095738;28;20080;-78
2023/03/06 05:33:53;;;;;;;72.30;22.83;;;;;;;1.71;100.00;100315.88;5095128;28;20169;-78
2023/03/06 05:36:19;;;;;;;69.93;22.27;;;;;;;1.77;100.00;100304.75;5093628;28;20036;-78
2023/03/06 05:38:44;;;;;;;68.95;23.98;;;;;;;1.78;100.00;100306.50;5059761;28;20047;-78
2023/03/06 05:41:11;;;;;;;68.63;22.10;;;;;;;1.84;100.00;100312.47;5093847;28;20036;-77
2023/03/06 05:43:37;;;;;;;72.25;24.05;;;;;;;1.82;100.00;100306.28;5091268;28;20543;-78
2023/03/06 05:46:04;;;;;;;68.20;22.30;;;;;;;1.75;100.00;100303.97;5094217;28;20040;-77
2023/03/06 05:48:30;;;;;;;70.07;22.27;;;;;;;1.77;100.00;100312.84;5093500;28;20036;-77
2023/03/06 05:51:00;;;;;;;73.60;24.15;;;;;;;1.71;100.00;100300.56;5096409;28;20036;-77
2023/03/06 05:53:25;;;;;;;75.07;24.50;;;;;;;1.78;100.00;100296.56;5086887;28;20491;-78
2023/03/06 05:55:59;;;;;;;75.15;23.98;;;;;;;1.80;100.00;100292.00;5071590;28;20047;-77
2023/03/06 05:58:26;;;;;;;66.68;22.92;;;;;;;1.81;100.00;100292.84;5092681;28;20032;-76
2023/03/06 06:00:51;;;;;;;71.93;24.10;;;;;;;1.83;100.00;100289.09;5086021;28;20487;-76
2023/03/06 06:03:18;;;;;;;82.70;25.45;;;;;;;1.82;100.00;100294.59;5093935;28;20039;-76
2023/03/06 06:05:43;;;;;;;75.55;25.77;;;;;;;1.81;100.00;100290.16;5086705;28;20101;-75
2023/03/06 06:08:08;;;;;;;78.22;25.15;;;;;;;1.82;100.00;100299.97;5085364;28;20044;-76
2023/03/06 06:10:34;;;;;;;68.80;22.92;;;;;;;1.81;100.00;100293.72;5069066;28;20115;-77
2023/03/06 06:12:59;;;;;;;62.78;23.48;;;;;;;1.85;100.00;100294.44;5082469;28;20044;-77
2023/03/06 06:15:27;;;;;;;83.97;27.10;;;;;;;1.77;100.00;100302.06;5089566;28;20115;-77
2023/03/06 06:17:56;;;;;;;71.20;24.33;;;;;;;1.75;100.00;100299.44;5090086;28;20036;-77
2023/03/06 06:20:22;;;;;;;76.15;26.05;;;;;;;1.76;100.00;100289.53;5094315;28;20084;-77
2023/03/06 06:22:48;;;;;;;70.78;25.45;;;;;;;1.78;100.00;100288.47;5086218;28;20407;-77
2023/03/06 06:25:13;;;;;;;70.97;25.63;;;;;;;1.82;100.00;100292.78;5091952;28;20034;-77
2023/03/06 06:27:39;;;;;;;73.35;25.25;;;;;;;1.76;100.00;100286.84;5090078;28;20123;-77
2023/03/06 06:30:06;;;;;;;70.15;24.65;;;;;;;1.80;100.00;100291.09;5066712;28;20039;-76
2023/03/06 06:32:32;;;;;;;78.82;26.25;;;;;;;1.89;100.00;100296.03;5074776;28;20529;-77
2023/03/06 06:34:57;;;;;;;70.43;25.70;;;;;;;1.86;100.00;100284.53;5089592;28;20044;-76
2023/03/06 06:37:24;;;;;;;66.93;25.52;;;;;;;1.89;100.00;100296.03;5091246;28;21629;-78
2023/03/06 06:39:50;;;;;;;69.40;25.10;;;;;;;1.85;100.00;100291.72;5095829;28;20032;-76
2023/03/06 06:42:16;;;;;;;68.53;24.38;;;;;;;1.73;100.00;100289.69;5083599;28;20475;-78
2023/03/06 06:44:42;;;;;;;71.50;26.20;;;;;;;1.87;100.00;100299.75;5049529;28;20090;-78
2023/03/06 06:47:08;;;;;;;74.47;26.90;;;;;;;1.87;100.00;100300.66;5086364;28;20044;-78
2023/03/06 06:49:33;;;;;;;70.75;26.02;;;;;;;1.94;100.00;100293.97;5072952;28;20040;-79
2023/03/06 06:51:59;;;;;;;88.00;27.35;;;;;;;1.84;100.00;100293.56;5055730;28;20032;-79
2023/03/06 06:54:24;;;;;;;74.68;25.23;;;;;;;1.77;100.00;100294.84;5088327;28;20028;-78
2023/03/06 06:56:50;;;;;;;79.75;25.83;;;;;;;1.99;100.00;100294.59;5094770;28;20111;-77
2023/03/06 06:59:16;;;;;;;73.03;27.20;;;;;;;1.96;100.00;100296.59;5084988;28;20060;-76
2023/03/06 07:01:41;;;;;;;70.53;26.25;;;;;;;2.00;100.00;100290.94;5085019;28;20038;-78
2023/03/06 07:04:06;;;;;;;79.38;27.25;;;;;;;2.04;100.00;100288.94;5089168;28;20080;-77
2023/03/06 07:06:32;;;;;;;76.13;26.73;;;;;;;1.97;100.00;100277.59;5087998;28;20506;-78
2023/03/06 07:08:57;;;;;;;74.93;26.08;;;;;;;2.08;100.00;100292.34;5079477;28;20037;-78
2023/03/06 07:11:23;;;;;;;86.53;27.00;;;;;;;2.08;100.00;100298.63;5074743;28;20090;-78
2023/03/06 07:13:49;;;;;;;79.45;26.83;;;;;;;2.12;100.00;100289.41;5082656;28;20048;-78
2023/03/06 07:16:16;;;;;;;80.10;27.23;;;;;;;2.04;100.00;100297.03;5094172;28;20032;-78
2023/03/06 07:18:42;;;;;;;84.43;27.55;;;;;;;2.17;100.00;100297.28;5076054;28;20043;-78
2023/03/06 07:21:08;;;;;;;72.88;25.05;;;;;;;2.18;100.00;100290.91;5093964;28;20040;-78
2023/03/06 07:23:34;;;;;;;70.82;24.83;;;;;;;2.18;100.00;100297.19;5094358;28;20032;-78
2023/03/06 07:25:59;;;;;;;81.72;27.38;;;;;;;2.25;100.00;100300.44;5076466;28;20421;-78
2023/03/06 07:28:25;;;;;;;55.63;20.33;;;;;;;2.22;100.00;100303.28;5089317;28;20032;-78
2023/03/06 07:30:50;;;;;;;72.88;25.02;;;;;;;2.26;100.00;100306.69;5058866;28;20075;-78
2023/03/06 07:33:16;;;;;;;79.38;26.58;;;;;;;2.23;100.00;100293.34;5088726;28;20059;-77
2023/03/06 07:35:43;;;;;;;69.20;24.65;;;;;;;2.34;100.00;100296.34;5095372;28;20069;-79
2023/03/06 07:38:08;;;;;;;67.65;24.52;;;;;;;2.32;100.00;100296.44;5083015;28;20033;-78
2023/03/06 07:40:34;;;;;;;66.57;24.60;;;;;;;2.32;100.00;100296.44;5067468;28;20037;-78
2023/03/06 07:43:00;;;;;;;66.90;25.63;;;;;;;2.37;100.00;100299.75;5088178;28;20036;-78
2023/03/06 07:45:25;;;;;;;73.95;24.42;;;;;;;2.31;100.00;100292.00;5096138;28;20410;-78
2023/03/06 07:47:52;;;;;;;68.38;25.27;;;;;;;2.44;100.00;100303.00;5068474;28;20036;-80
2023/03/06 07:50:21;;;;;;;75.30;25.63;;;;;;;2.47;100.00;100291.16;5076889;28;20046;-79
2023/03/06 07:52:48;;;;;;;64.18;24.30;;;;;;;2.48;100.00;100292.91;5078355;28;20032;-77
2023/03/06 07:55:14;;;;;;;66.15;25.45;;;;;;;2.47;100.00;100299.28;5094686;28;20050;-78
2023/03/06 07:57:40;;;;;;;75.32;28.20;;;;;;;2.60;100.00;100302.19;5060910;28;20032;-78
2023/03/06 08:00:08;;;;;;;73.32;24.67;;;;;;;2.67;100.00;100300.88;5100428;28;20048;-78
2023/03/06 08:02:34;;;;;;;74.18;27.83;;;;;;;2.62;100.00;100289.44;5099487;28;20032;-77
2023/03/06 08:04:59;;;;;;;71.15;25.98;;;;;;;2.68;100.00;100289.97;5080724;28;20185;-77
2023/03/06 08:07:25;;;;;;;80.60;27.73;;;;;;;2.82;100.00;100296.44;5058723;28;20085;-77
2023/03/06 08:09:50;;;;;;;79.25;27.65;;;;;;;2.87;100.00;100292.53;5076496;28;20597;-77
2023/03/06 08:12:16;;;;;;;69.13;25.42;;;;;;;2.99;100.00;100303.63;5081029;28;20028;-78
2023/03/06 08:14:41;;;;;;;74.55;27.58;;;;;;;3.02;100.00;100301.59;5059482;28;20043;-77
2023/03/06 08:17:07;;;;;;;76.05;26.33;;;;;;;3.00;100.00;100305.34;5072326;28;20129;-77
2023/03/06 08:19:33;;;;;;;75.32;26.85;;;;;;;3.08;100.00;100297.66;5092792;28;20123;-78
2023/03/06 08:21:58;;;;;;;69.57;27.63;;;;;;;3.00;100.00;100308.94;5076359;28;20502;-78
2023/03/06 08:24:27;;;;;;;72.18;26.38;;;;;;;3.07;100.00;100295.94;5094492;28;20040;-78
2023/03/06 08:26:52;;;;;;;65.90;25.25;;;;;;;3.09;100.00;100307.53;5091118;28;20032;-78
2023/03/06 08:29:18;;;;;;;67.43;25.45;;;;;;;2.99;100.00;100311.72;5059213;28;20039;-79
2023/03/06 08:31:45;;;;;;;74.90;27.88;;;;;;;3.19;100.00;100303.34;5080509;28;20039;-80
2023/03/06 08:34:18;;;;;;;76.43;27.60;;;;;;;3.21;100.00;100303.25;5056707;28;20063;-78
2023/03/06 08:36:44;;;;;;;68.55;26.25;;;;;;;3.10;100.00;100312.00;5048078;28;20032;-78
2023/03/06 08:39:10;;;;;;;71.72;26.25;;;;;;;3.04;100.00;100299.69;5044834;28;20027;-79
2023/03/06 08:41:36;;;;;;;73.93;26.33;;;;;;;3.17;100.00;100309.81;5063431;28;20479;-79
2023/03/06 08:44:03;;;;;;;71.47;25.65;;;;;;;3.22;100.00;100299.59;5064489;28;20036;-79
2023/03/06 08:46:30;;;;;;;67.82;26.42;;;;;;;3.25;100.00;100310.25;5063502;28;20051;-78
2023/03/06 08:48:56;;;;;;;68.82;27.13;;;;;;;3.17;100.00;100307.09;5087822;28;20499;-78
2023/03/06 08:51:22;;;;;;;75.60;26.50;;;;;;;3.25;100.00;100307.53;5086594;28;20047;-78
2023/03/06 08:53:48;;;;;;;78.00;26.65;;;;;;;3.35;100.00;100303.34;5068804;28;20032;-78
2023/03/06 08:56:17;;;;;;;70.53;25.92;;;;;;;3.31;100.00;100312.56;5069907;28;20511;-78
2023/03/06 08:58:43;;;;;;;61.53;24.27;;;;;;;3.22;100.00;100313.13;5077503;28;20039;-78
2023/03/06 09:01:17;;;;;;;62.45;23.63;;;;;;;3.26;100.00;100306.56;5079592;28;20040;-79
2023/03/06 09:03:43;;;;;;;68.10;24.90;;;;;;;3.47;100.00;100304.44;5100590;28;20111;-79
2023/03/06 09:06:08;;;;;;;62.53;24.02;;;;;;;3.57;100.00;100300.22;5097987;28;20059;-79
2023/03/06 09:08:34;;;;;;;63.60;23.58;;;;;;;3.53;100.00;100305.94;5082300;28;20176;-79
2023/03/06 09:10:59;;;;;;;64.75;24.67;;;;;;;3.57;100.00;100313.75;5065501;28;20430;-78
2023/03/06 09:13:25;;;;;;;57.42;23.35;;;;;;;3.50;100.00;100309.69;5081583;28;20059;-78
2023/03/06 09:15:50;;;;;;;63.40;24.40;;;;;;;3.58;100.00;100306.53;5078829;28;20087;-78
2023/03/06 09:18:16;;;;;;;63.17;24.55;;;;;;;3.66;100.00;100296.13;5096797;28;20097;-79
2023/03/06 09:20:41;;;;;;;63.75;23.45;;;;;;;3.70;100.00;100305.78;5080804;28;20036;-79
2023/03/06 09:23:08;;;;;;;55.42;21.80;;;;;;;3.79;100.00;100305.25;5048845;28;20111;-79
2023/03/06 09:25:33;;;;;;;64.22;23.48;;;;;;;3.86;100.00;100301.19;5064401;28;20131;-78
2023/03/06 09:27:59;;;;;;;57.63;22.55;;;;;;;4.03;100.00;100308.31;5082919;28;20087;-79
2023/03/06 09:30:24;;;;;;;57.08;20.42;;;;;;;4.05;100.00;100309.09;5095794;28;20534;-80
2023/03/06 09:32:50;;;;;;;57.20;21.27;;;;;;;4.12;100.00;100315.00;5062648;28;20494;-79
2023/03/06 09:35:17;;;;;;;55.88;22.33;;;;;;;4.15;100.00;100314.81;5078966;28;20040;-79
2023/03/06 09:37:43;;;;;;;50.33;18.98;;;;;;;4.09;100.00;100323.31;5097322;28;20482;-78
2023/03/06 09:40:24;;;;;;;43.60;18.10;;;;;;;4.00;100.00;100315.72;5097151;28;20032;-79
2023/03/06 09:42:49;;;;;;;48.08;18.17;;;;;;;4.08;100.00;100318.84;5096544;28;20039;-78
2023/03/06 09:45:16;;;;;;;44.28;18.05;;;;;;;4.05;100.00;100327.19;5057050;28;20490;-78
2023/03/06 09:47:52;;;;;;;42.10;18.02;;;;;;;4.05;100.00;100322.63;5078080;28;20024;-78
2023/03/06 09:50:33;;;;;;;41.10;18.17;;;;;;;4.51;100.00;100318.03;5096869;28;20036;-78
2023/03/06 09:53:30;;;;;;;41.22;15.38;;;;;;;4.85;100.00;100329.47;5078117;28;20103;-78
2023/03/06 09:56:04;;;;;;;33.97;14.73;;;;;;;5.10;100.00;100326.03;5078721;28;20130;-78
2023/03/06 09:58:36;;;;;;;33.03;15.00;;;;;;;4.95;100.00;100320.66;5095752;28;20027;-77
2023/03/06 10:01:09;;;;;;;35.78;14.50;;;;;;;4.87;100.00;100317.56;5098651;28;20391;-79
2023/03/06 10:03:51;;;;;;;;;;;;;;;5.61;100.00;100315.44;5099369;28;20100;-79
2023/03/06 10:06:28;;;;;;;29.88;12.88;;;;;;;5.79;100.00;100328.72;5097974;28;19911;-79
2023/03/06 10:09:00;;;;;;;29.85;13.30;;;;;;;5.97;100.00;100321.19;5098816;28;20066;-79
2023/03/06 10:11:38;;;;;;;29.58;12.35;;;;;;;5.83;100.00;100319.41;5115366;28;20035;-79
2023/03/06 10:14:34;;;;;;;32.17;12.70;;;;;;;5.74;100.00;100320.03;5093488;28;20034;-79
2023/03/06 10:17:00;;;;;;;26.05;10.88;;;;;;;5.38;100.00;100318.78;5116345;28;20028;-79
2023/03/06 10:19:34;;;;;;;30.33;13.00;;;;;;;5.04;100.00;100313.75;5116727;28;20486;-78
2023/03/06 10:22:25;;;;;;;24.88;12.10;;;;;;;5.08;100.00;100317.13;5098658;28;20139;-78
2023/03/06 10:24:56;;;;;;;29.40;12.95;;;;;;;5.23;100.00;100320.69;5116445;28;20106;-79
2023/03/06 10:27:47;;;;;;;35.47;14.98;;;;;;;5.11;100.00;100315.09;5116143;28;20053;-78
2023/03/06 10:30:51;;;;;;;29.50;14.00;;;;;;;5.14;100.00;100316.75;5078203;28;20057;-78
2023/03/06 10:33:21;;;;;;;;;;;;;;;5.16;100.00;100317.50;5096403;28;20060;-79
2023/03/06 10:35:52;;;;;;;32.03;11.80;;;;;;;5.22;100.00;100314.38;5096121;28;19908;-79
2023/03/06 10:38:17;;;;;;;26.23;12.75;;;;;;;5.14;100.00;100317.59;5096750;28;20031;-79
2023/03/06 10:40:58;;;;;;;34.40;13.23;;;;;;;5.26;100.00;100315.94;5105765;28;20031;-78
2023/03/06 10:43:23;;;;;;;30.48;13.25;;;;;;;5.24;100.00;100314.28;5097161;28;20599;-78
2023/03/06 10:45:52;;;;;;;27.83;11.85;;;;;;;5.20;100.00;100308.19;5098062;28;20061;-77
2023/03/06 10:48:23;;;;;;;29.52;12.48;;;;;;;5.37;100.00;100311.66;5115936;28;20028;-79
2023/03/06 10:50:48;;;;;;;32.63;12.43;;;;;;;5.57;100.00;100315.75;5099058;28;20036;-78
2023/03/06 10:53:27;;;;;;;25.92;11.75;;;;;;;5.74;100.00;100318.19;5066893;28;20027;-79
2023/03/06 10:55:58;;;;;;;26.85;11.77;;;;;;;5.93;100.00;100312.38;5121232;27;20053;-79
2023/03/06 10:58:28;;;;;;;25.90;11.43;;;;;;;6.01;100.00;100314.59;5088980;28;20053;-78
2023/03/06 11:01:16;;;;;;;24.15;11.68;;;;;;;6.47;100.00;100313.22;5103394;28;20036;-79
2023/03/06 11:03:42;;;;;;;25.15;11.02;;;;;;;6.38;100.00;100310.19;5103568;28;20090;-79
2023/03/06 11:06:11;;;;;;;21.52;11.43;;;;;;;6.27;100.00;100314.63;5080956;28;20495;-78
2023/03/06 11:08:39;;;;;;;22.45;10.13;;;;;;;6.42;100.00;100313.56;5102939;28;20508;-78
2023/03/06 11:11:14;;;;;;;24.10;10.98;;;;;;;6.46;100.00;100312.38;5115418;28;20073;-79